createdAt,value
2022-08-05T00:01:36.366Z,3.95
2022-08-05T00:04:17.733Z,3.75
2022-08-05T00:06:47.185Z,3.80
2022-08-05T00:09:21.664Z,3.97
2022-08-05T00:11:59.645Z,3.28
2022-08-05T00:14:29.142Z,3.38
2022-08-05T00:16:58.178Z,4.00
2022-08-05T00:19:33.551Z,4.10
2022-08-05T00:22:11.289Z,3.78
2022-08-05T00:24:42.164Z,4.13
2022-08-05T00:27:28.583Z,4.60
2022-08-05T00:30:00.542Z,4.53
2022-08-05T00:32:31.614Z,4.43
2022-08-05T00:35:06.548Z,4.10
2022-08-05T00:37:53.057Z,4.88
2022-08-05T00:40:26.838Z,4.72
2022-08-05T00:42:58.386Z,4.97
2022-08-05T00:45:38.380Z,5.20
2022-08-05T00:48:09.257Z,5.25
2022-08-05T00:50:37.951Z,4.90
2022-08-05T00:53:09.744Z,4.55
2022-08-05T00:55:55.959Z,4.60
2022-08-05T00:58:27.458Z,4.63
2022-08-05T01:00:55.992Z,3.75
2022-08-05T01:03:31.085Z,4.75
2022-08-05T01:06:03.927Z,4.65
2022-08-05T01:08:42.853Z,4.82
2022-08-05T01:11:22.348Z,4.50
2022-08-05T01:14:08.892Z,4.10
2022-08-05T01:16:50.060Z,4.97
2022-08-05T01:19:56.041Z,4.05
2022-08-05T01:22:39.492Z,4.25
2022-08-05T01:25:53.141Z,4.32
2022-08-05T01:28:34.152Z,4.90
2022-08-05T01:31:11.489Z,4.80
2022-08-05T01:33:49.322Z,4.80
2022-08-05T01:36:28.303Z,4.60
2022-08-05T01:39:00.900Z,4.65
2022-08-05T01:41:35.801Z,4.90
2022-08-05T01:44:10.031Z,5.05
2022-08-05T01:46:46.318Z,4.97
2022-08-05T01:49:23.207Z,4.75
2022-08-05T01:51:58.761Z,5.07
2022-08-05T01:54:45.935Z,4.75
2022-08-05T01:58:11.440Z,4.57
2022-08-05T02:00:11.620Z,5.05
2022-08-05T02:02:54.378Z,4.45
2022-08-05T02:05:29.121Z,4.63
2022-08-05T02:08:00.961Z,4.60
2022-08-05T02:10:35.438Z,4.75
2022-08-05T02:13:15.841Z,4.90
2022-08-05T02:15:51.912Z,4.47
2022-08-05T02:18:34.892Z,5.00
2022-08-05T02:21:15.162Z,4.57
2022-08-05T02:23:47.354Z,4.57
2022-08-05T02:26:22.858Z,4.85
2022-08-05T02:28:52.384Z,4.70
2022-08-05T02:31:28.618Z,4.55
2022-08-05T02:34:09.357Z,4.80
2022-08-05T02:36:44.900Z,4.80
2022-08-05T02:39:16.197Z,4.78
2022-08-05T02:42:00.651Z,4.57
2022-08-05T02:44:31.906Z,5.00
2022-08-05T02:47:03.027Z,4.57
2022-08-05T02:49:37.957Z,4.97
2022-08-05T02:52:13.694Z,4.63
2022-08-05T02:55:01.836Z,4.65
2022-08-05T02:58:10.072Z,4.47
2022-08-05T03:00:22.771Z,4.57
2022-08-05T03:02:56.114Z,4.70
2022-08-05T03:06:55.753Z,4.82
2022-08-05T03:08:13.172Z,4.70
2022-08-05T03:10:44.684Z,4.43
2022-08-05T03:13:51.694Z,4.82
2022-08-05T03:16:21.917Z,4.80
2022-08-05T03:18:52.480Z,4.88
2022-08-05T03:21:20.899Z,4.97
2022-08-05T03:23:50.266Z,4.30
2022-08-05T03:26:31.611Z,4.75
2022-08-05T03:29:01.007Z,4.53
2022-08-05T03:31:56.462Z,5.03
2022-08-05T03:34:19.687Z,4.80
2022-08-05T03:36:52.727Z,4.88
2022-08-05T03:39:27.097Z,4.68
2022-08-05T03:41:56.578Z,4.97
2022-08-05T03:44:25.206Z,5.20
2022-08-05T03:46:57.468Z,5.13
2022-08-05T03:49:31.129Z,5.30
2022-08-05T03:52:48.835Z,4.80
2022-08-05T03:56:05.845Z,4.72
2022-08-05T03:58:16.629Z,4.68
2022-08-05T04:00:51.595Z,4.95
2022-08-05T04:03:28.293Z,4.32
2022-08-05T04:05:59.465Z,4.90
2022-08-05T04:08:36.438Z,4.40
2022-08-05T04:11:08.443Z,4.97
2022-08-05T04:13:50.389Z,4.60
2022-08-05T04:16:24.870Z,4.80
2022-08-05T04:18:54.882Z,5.53
2022-08-05T04:22:09.669Z,4.70
2022-08-05T04:24:19.378Z,4.43
2022-08-05T04:26:50.951Z,5.05
2022-08-05T04:29:19.798Z,5.32
2022-08-05T04:31:48.490Z,4.68
2022-08-05T04:34:32.336Z,4.93
2022-08-05T04:37:05.660Z,4.50
2022-08-05T04:39:35.473Z,5.13
2022-08-05T04:42:04.382Z,4.55
2022-08-05T04:44:32.672Z,4.70
2022-08-05T04:47:09.517Z,4.53
2022-08-05T04:50:01.701Z,4.75
2022-08-05T04:52:34.087Z,4.75
2022-08-05T04:55:13.844Z,4.90
2022-08-05T04:57:47.963Z,4.43
2022-08-05T05:00:23.529Z,4.45
2022-08-05T05:02:52.513Z,4.85
2022-08-05T05:05:28.466Z,4.53
2022-08-05T05:08:03.001Z,5.10
2022-08-05T05:10:33.276Z,4.53
2022-08-05T05:13:04.355Z,4.88
2022-08-05T05:15:57.848Z,4.90
2022-08-05T05:18:30.982Z,4.50
2022-08-05T05:21:03.935Z,4.85
2022-08-05T05:23:39.228Z,5.07
2022-08-05T05:26:28.880Z,4.60
2022-08-05T05:29:02.678Z,4.70
2022-08-05T05:31:42.416Z,4.60
2022-08-05T05:34:15.568Z,5.30
2022-08-05T05:36:44.402Z,4.80
2022-08-05T05:39:16.633Z,4.72
2022-08-05T05:41:54.311Z,5.10
2022-08-05T05:44:36.631Z,4.60
2022-08-05T05:47:13.339Z,5.20
2022-08-05T05:49:56.540Z,4.45
2022-08-05T05:52:30.001Z,4.47
2022-08-05T05:55:07.475Z,4.25
2022-08-05T05:57:52.894Z,4.60
2022-08-05T06:00:31.365Z,4.28
2022-08-05T06:03:01.554Z,4.30
2022-08-05T06:05:29.763Z,5.60
2022-08-05T06:08:01.616Z,4.20
2022-08-05T06:10:36.706Z,4.70
2022-08-05T06:13:06.334Z,4.13
2022-08-05T06:16:27.540Z,4.40
2022-08-05T06:18:31.351Z,4.10
2022-08-05T06:21:00.720Z,4.10
2022-08-05T06:23:32.122Z,4.30
2022-08-05T06:26:23.901Z,4.00
2022-08-05T06:28:53.384Z,4.15
2022-08-05T06:31:22.296Z,4.40
2022-08-05T06:34:07.717Z,4.20
2022-08-05T06:36:57.107Z,3.92
2022-08-05T06:39:27.169Z,4.00
2022-08-05T06:41:58.607Z,4.15
2022-08-05T06:44:27.312Z,3.70
2022-08-05T06:46:56.166Z,3.58
2022-08-05T06:50:00.686Z,3.85
2022-08-05T06:52:36.823Z,3.65
2022-08-05T06:55:02.491Z,4.38
2022-08-05T06:58:03.693Z,3.72
2022-08-05T07:00:22.424Z,3.60
2022-08-05T07:02:54.288Z,3.72
2022-08-05T07:05:36.844Z,3.45
2022-08-05T07:08:07.248Z,3.72
2022-08-05T07:10:39.688Z,3.35
2022-08-05T07:13:58.382Z,3.35
2022-08-05T07:18:08.486Z,3.53
2022-08-05T07:22:28.185Z,3.15
2022-08-05T07:25:23.418Z,3.15
2022-08-05T07:27:57.639Z,3.35
2022-08-05T07:30:33.930Z,3.40
2022-08-05T07:33:05.218Z,2.97
2022-08-05T07:36:02.248Z,3.33
2022-08-05T07:38:33.380Z,3.22
2022-08-05T07:41:35.007Z,3.17
2022-08-05T07:43:56.100Z,2.97
2022-08-05T07:46:27.350Z,3.33
2022-08-05T07:49:03.874Z,3.10
2022-08-05T07:51:48.605Z,3.10
2022-08-05T07:54:31.430Z,3.17
2022-08-05T07:57:23.625Z,2.97
2022-08-05T07:59:51.424Z,2.80
2022-08-05T08:02:31.241Z,3.17
2022-08-05T08:05:14.900Z,3.30
2022-08-05T08:07:59.713Z,2.90
2022-08-05T08:10:28.998Z,3.40
2022-08-05T08:12:58.756Z,3.00
2022-08-05T08:15:37.336Z,3.25
2022-08-05T08:18:20.607Z,2.90
2022-08-05T08:21:03.071Z,3.05
2022-08-05T08:24:01.193Z,3.08
2022-08-05T08:26:26.795Z,2.85
2022-08-05T08:29:22.229Z,3.15
2022-08-05T08:31:47.448Z,2.80
2022-08-05T08:34:18.704Z,2.83
2022-08-05T08:36:54.767Z,2.70
2022-08-05T08:39:24.931Z,3.08
2022-08-05T08:41:59.872Z,3.00
2022-08-05T08:45:22.360Z,2.85
2022-08-05T08:48:06.695Z,3.08
2022-08-05T08:50:31.766Z,2.75
2022-08-05T08:53:12.224Z,2.83
2022-08-05T08:56:05.070Z,2.63
2022-08-05T08:58:37.061Z,2.70
2022-08-05T09:01:15.732Z,2.90
2022-08-05T09:03:48.380Z,3.20
2022-08-05T09:06:29.396Z,2.85
2022-08-05T09:08:59.671Z,2.97
2022-08-05T09:11:50.956Z,2.90
2022-08-05T09:14:57.859Z,2.75
2022-08-05T09:17:09.386Z,2.70
2022-08-05T09:19:55.449Z,2.80
2022-08-05T09:22:31.737Z,2.75
2022-08-05T09:25:14.084Z,2.75
2022-08-05T09:28:04.418Z,2.80
2022-08-05T09:30:35.331Z,3.10
2022-08-05T09:33:07.360Z,2.80
2022-08-05T09:35:36.132Z,2.80
2022-08-05T09:38:12.793Z,2.40
2022-08-05T09:40:52.117Z,2.63
2022-08-05T09:43:40.682Z,2.70
2022-08-05T09:46:27.253Z,2.75
2022-08-05T09:49:07.247Z,2.63
2022-08-05T09:51:40.070Z,2.83
2022-08-05T09:54:11.444Z,2.50
2022-08-05T09:56:51.790Z,2.45
2022-08-05T09:59:27.423Z,2.53
2022-08-05T10:01:58.327Z,2.60
2022-08-05T10:04:38.430Z,2.67
2022-08-05T10:07:20.937Z,2.58
2022-08-05T10:10:15.177Z,2.55
2022-08-05T10:12:50.947Z,2.35
2022-08-05T10:15:25.623Z,2.30
2022-08-05T10:18:12.278Z,2.50
2022-08-05T10:20:47.762Z,2.45
2022-08-05T10:23:34.776Z,2.50
2022-08-05T10:26:14.384Z,2.60
2022-08-05T10:28:45.322Z,2.40
2022-08-05T10:32:48.711Z,2.67
2022-08-05T10:34:07.211Z,2.60
2022-08-05T10:36:37.960Z,2.60
2022-08-05T10:39:15.228Z,2.60
2022-08-05T10:42:04.699Z,2.53
2022-08-05T10:44:34.232Z,2.33
2022-08-05T10:47:26.982Z,2.40
2022-08-05T10:50:31.722Z,2.35
2022-08-05T10:53:00.237Z,2.45
2022-08-05T10:55:30.479Z,2.38
2022-08-05T10:58:14.941Z,2.33
2022-08-05T11:00:55.214Z,2.28
2022-08-05T11:03:31.176Z,2.28
2022-08-05T11:06:15.813Z,2.42
2022-08-05T11:09:32.249Z,2.40
2022-08-05T11:12:50.429Z,2.45
2022-08-05T11:16:00.210Z,2.45
2022-08-05T11:18:29.704Z,2.30
2022-08-05T11:20:59.111Z,2.42
2022-08-05T11:24:04.297Z,2.38
2022-08-05T11:26:29.181Z,2.45
2022-08-05T11:29:12.668Z,2.30
2022-08-05T11:31:56.968Z,2.42
2022-08-05T11:34:50.918Z,2.42
2022-08-05T11:38:29.586Z,2.53
2022-08-05T11:41:35.556Z,2.63
2022-08-05T11:44:06.461Z,2.25
2022-08-05T11:47:10.274Z,2.10
2022-08-05T11:49:33.758Z,2.47
2022-08-05T11:52:11.555Z,2.40
2022-08-05T11:54:41.388Z,2.40
2022-08-05T11:57:24.243Z,2.17
2022-08-05T11:59:54.456Z,2.42
2022-08-05T12:02:31.548Z,2.35
2022-08-05T12:05:07.219Z,2.42
2022-08-05T12:08:03.275Z,2.45
2022-08-05T12:10:43.179Z,2.35
2022-08-05T12:13:17.305Z,2.20
2022-08-05T12:15:49.819Z,2.42
2022-08-05T12:18:32.996Z,2.40
2022-08-05T12:21:13.721Z,2.30
2022-08-05T12:23:54.440Z,2.10
2022-08-05T12:26:23.869Z,2.50
2022-08-05T12:28:52.633Z,2.38
2022-08-05T12:31:23.457Z,2.08
2022-08-05T12:34:01.707Z,2.42
2022-08-05T12:36:33.492Z,2.17
2022-08-05T12:39:02.733Z,2.28
2022-08-05T12:41:43.541Z,2.38
2022-08-05T12:44:21.597Z,2.30
2022-08-05T12:47:02.165Z,2.17
2022-08-05T12:50:03.724Z,2.50
2022-08-05T12:52:38.592Z,2.00
2022-08-05T12:55:23.874Z,2.20
2022-08-05T12:58:38.894Z,2.25
2022-08-05T13:02:00.420Z,2.47
2022-08-05T13:03:42.526Z,2.20
2022-08-05T13:06:17.530Z,2.30
2022-08-05T13:08:51.567Z,2.40
2022-08-05T13:11:59.709Z,2.15
2022-08-05T13:14:19.463Z,2.00
2022-08-05T13:16:56.606Z,2.17
2022-08-05T13:19:27.627Z,2.10
2022-08-05T13:22:29.255Z,2.17
2022-08-05T13:25:05.678Z,2.17
2022-08-05T13:27:38.747Z,2.38
2022-08-05T13:30:34.106Z,2.13
2022-08-05T13:33:01.121Z,2.20
2022-08-05T13:35:43.351Z,2.30
2022-08-05T13:38:28.293Z,2.20
2022-08-05T13:41:00.987Z,2.20
2022-08-05T13:43:43.490Z,2.20
2022-08-05T13:46:14.902Z,2.30
2022-08-05T13:48:57.090Z,2.15
2022-08-05T13:51:40.397Z,1.95
2022-08-05T13:54:12.729Z,1.83
2022-08-05T13:56:45.252Z,2.05
2022-08-05T13:59:21.372Z,2.05
2022-08-05T14:01:59.267Z,2.05
2022-08-05T14:04:49.660Z,1.95
2022-08-05T14:07:55.584Z,2.20
2022-08-05T14:10:13.647Z,2.00
2022-08-05T14:12:49.097Z,1.55
2022-08-05T14:16:04.664Z,1.92
2022-08-05T14:18:14.961Z,2.17
2022-08-05T14:20:47.972Z,2.20
2022-08-05T14:23:23.448Z,1.95
2022-08-05T14:25:54.519Z,2.10
2022-08-05T14:28:28.431Z,1.90
2022-08-05T14:30:57.120Z,2.03
2022-08-05T14:33:25.507Z,1.95
2022-08-05T14:35:54.662Z,1.80
2022-08-05T14:38:32.384Z,1.77
2022-08-05T14:41:06.266Z,2.08
2022-08-05T14:43:57.434Z,1.80
2022-08-05T14:46:29.124Z,1.92
2022-08-05T14:49:04.195Z,1.70
2022-08-05T14:51:37.553Z,1.95
2022-08-05T14:54:28.159Z,2.00
2022-08-05T14:56:55.485Z,1.95
2022-08-05T14:59:25.219Z,1.77
2022-08-05T15:01:58.252Z,1.92
2022-08-05T15:04:29.119Z,1.90
2022-08-05T15:06:57.673Z,1.88
2022-08-05T15:09:52.025Z,1.80
2022-08-05T15:12:27.052Z,1.90
2022-08-05T15:14:58.715Z,2.00
2022-08-05T15:17:46.502Z,1.90
2022-08-05T15:20:19.297Z,2.03
2022-08-05T15:22:55.094Z,1.98
2022-08-05T15:25:51.345Z,2.00
2022-08-05T15:28:14.756Z,2.00
2022-08-05T15:30:46.508Z,2.00
2022-08-05T15:34:04.060Z,1.67
2022-08-05T15:36:09.069Z,1.70
2022-08-05T15:38:46.964Z,2.03
2022-08-05T15:41:23.974Z,1.98
2022-08-05T15:43:54.640Z,1.67
2022-08-05T15:46:25.257Z,1.80
2022-08-05T15:49:00.689Z,1.95
2022-08-05T15:52:10.019Z,1.90
2022-08-05T15:54:19.323Z,2.08
2022-08-05T15:56:47.719Z,2.20
2022-08-05T15:59:20.284Z,2.28
2022-08-05T16:01:53.699Z,2.22
2022-08-05T16:04:25.507Z,1.95
2022-08-05T16:06:55.477Z,2.00
2022-08-05T16:09:25.076Z,1.92
2022-08-05T16:11:53.975Z,2.05
2022-08-05T16:14:22.930Z,1.98
2022-08-05T16:16:55.661Z,1.90
2022-08-05T16:20:04.168Z,2.00
2022-08-05T16:22:15.465Z,2.10
2022-08-05T16:24:51.165Z,1.83
2022-08-05T16:27:46.801Z,1.95
2022-08-05T16:30:23.120Z,1.88
2022-08-05T16:32:55.661Z,2.00
2022-08-05T16:35:27.771Z,2.00
2022-08-05T16:38:15.554Z,2.00
2022-08-05T16:40:51.978Z,2.00
2022-08-05T16:43:30.889Z,2.05
2022-08-05T16:46:04.915Z,1.92
2022-08-05T16:48:40.301Z,2.08
2022-08-05T16:51:10.825Z,1.98
2022-08-05T16:54:06.017Z,2.00
2022-08-05T16:56:33.702Z,2.28
2022-08-05T16:59:08.469Z,1.95
2022-08-05T17:01:53.884Z,1.85
2022-08-05T17:04:27.351Z,1.85
2022-08-05T17:07:00.926Z,1.98
2022-08-05T17:09:57.168Z,2.10
2022-08-05T17:12:22.490Z,1.75
2022-08-05T17:15:09.243Z,1.75
2022-08-05T17:17:42.416Z,1.80
2022-08-05T17:20:14.890Z,1.90
2022-08-05T17:22:44.929Z,1.80
2022-08-05T17:25:33.691Z,1.80
2022-08-05T17:28:01.480Z,2.03
2022-08-05T17:30:29.948Z,1.88
2022-08-05T17:32:58.216Z,1.80
2022-08-05T17:36:06.776Z,1.98
2022-08-05T17:38:17.661Z,1.85
2022-08-05T17:40:46.019Z,1.73
2022-08-05T17:43:15.877Z,2.10
2022-08-05T17:45:44.361Z,2.08
2022-08-05T17:48:13.131Z,1.80
2022-08-05T17:50:45.435Z,2.22
2022-08-05T17:53:13.701Z,1.67
2022-08-05T17:55:43.025Z,1.80
2022-08-05T17:58:14.543Z,1.75
2022-08-05T18:00:50.980Z,1.85
2022-08-05T18:03:48.469Z,1.75
2022-08-05T18:06:12.215Z,1.85
2022-08-05T18:08:46.185Z,1.73
2022-08-05T18:11:24.218Z,1.60
2022-08-05T18:14:03.571Z,1.63
2022-08-05T18:16:33.277Z,1.25
2022-08-05T18:19:02.301Z,1.50
2022-08-05T18:22:08.805Z,1.35
2022-08-05T18:24:20.929Z,1.20
2022-08-05T18:26:49.512Z,1.25
2022-08-05T18:29:17.794Z,1.20
2022-08-05T18:32:07.113Z,1.20
2022-08-05T18:34:49.247Z,1.23
2022-08-05T18:37:34.229Z,1.40
2022-08-05T18:40:34.345Z,1.50
2022-08-05T18:42:59.795Z,1.30
2022-08-05T18:45:41.456Z,1.30
2022-08-05T18:48:12.042Z,1.20
2022-08-05T18:52:05.611Z,1.23
2022-08-05T18:54:06.640Z,1.30
2022-08-05T18:56:38.069Z,1.30
2022-08-05T18:59:44.410Z,1.40
2022-08-05T19:01:57.200Z,1.38
2022-08-05T19:04:26.696Z,1.33
2022-08-05T19:06:55.020Z,1.70
2022-08-05T19:09:24.595Z,1.25
2022-08-05T19:11:59.340Z,1.48
2022-08-05T19:14:53.435Z,1.30
2022-08-05T19:17:19.195Z,1.40
2022-08-05T19:19:48.589Z,1.30
2022-08-05T19:22:17.904Z,1.52
2022-08-05T19:24:54.609Z,1.63
2022-08-05T19:27:30.539Z,1.20
2022-08-05T19:29:58.973Z,1.10
2022-08-05T19:32:27.821Z,1.30
2022-08-05T19:34:57.955Z,1.30
2022-08-05T19:37:34.990Z,1.33
2022-08-05T19:40:16.922Z,1.20
2022-08-05T19:43:04.658Z,1.30
2022-08-05T19:45:36.974Z,1.20
2022-08-05T19:48:06.589Z,1.30
2022-08-05T19:50:35.721Z,1.10
2022-08-05T19:53:10.636Z,1.20
2022-08-05T19:56:29.613Z,1.30
2022-08-05T19:59:51.312Z,1.10
2022-08-05T20:01:49.149Z,1.27
2022-08-05T20:04:17.550Z,1.45
2022-08-05T20:06:48.705Z,1.27
2022-08-05T20:09:17.408Z,1.20
2022-08-05T20:11:48.225Z,1.02
2022-08-05T20:14:23.523Z,1.17
2022-08-05T20:16:55.861Z,1.17
2022-08-05T20:19:24.947Z,1.17
2022-08-05T20:22:04.926Z,1.17
2022-08-05T20:24:34.350Z,1.27
2022-08-05T20:27:11.266Z,1.45
2022-08-05T20:29:39.980Z,1.23
2022-08-05T20:32:09.099Z,1.20
2022-08-05T20:34:38.733Z,1.45
2022-08-05T20:37:17.829Z,1.40
2022-08-05T20:39:52.811Z,1.33
2022-08-05T20:42:28.507Z,1.33
2022-08-05T20:44:57.636Z,1.38
2022-08-05T20:47:32.220Z,1.40
2022-08-05T20:50:02.049Z,1.40
2022-08-05T20:52:31.233Z,1.42
2022-08-05T20:55:56.532Z,1.67
2022-08-05T20:57:57.147Z,1.40
2022-08-05T21:00:44.423Z,1.77
2022-08-05T21:03:16.799Z,1.73
2022-08-05T21:05:55.494Z,1.50
2022-08-05T21:08:33.073Z,1.92
2022-08-05T21:11:12.410Z,1.50
2022-08-05T21:13:48.165Z,1.77
2022-08-05T21:16:30.153Z,1.42
2022-08-05T21:19:00.102Z,1.50
2022-08-05T21:21:43.921Z,1.60
2022-08-05T21:24:15.598Z,1.50
2022-08-05T21:26:53.096Z,1.80
2022-08-05T21:29:32.172Z,1.35
2022-08-05T21:32:02.822Z,1.50
2022-08-05T21:34:32.948Z,1.40
2022-08-05T21:37:04.776Z,1.30
2022-08-05T21:39:34.612Z,1.48
2022-08-05T21:42:03.265Z,1.50
2022-08-05T21:44:33.117Z,1.67
2022-08-05T21:47:01.954Z,1.70
2022-08-05T21:49:48.620Z,1.70
2022-08-05T21:52:27.792Z,1.60
2022-08-05T21:54:57.633Z,1.80
2022-08-05T21:57:35.370Z,1.52
2022-08-05T22:00:11.186Z,1.60
2022-08-05T22:02:43.700Z,1.50
2022-08-05T22:05:13.386Z,1.60
2022-08-05T22:07:58.939Z,1.70
2022-08-05T22:10:29.053Z,1.60
2022-08-05T22:12:59.015Z,1.60
2022-08-05T22:16:01.210Z,1.80
2022-08-05T22:18:27.236Z,1.40
2022-08-05T22:20:56.857Z,1.40
2022-08-05T22:24:02.866Z,1.60
2022-08-05T22:26:49.523Z,1.30
2022-08-05T22:29:26.588Z,1.60
2022-08-05T22:32:03.353Z,1.45
2022-08-05T22:34:32.747Z,1.42
2022-08-05T22:37:03.956Z,1.58
2022-08-05T22:39:35.934Z,1.40
2022-08-05T22:42:12.676Z,1.60
2022-08-05T22:44:48.356Z,1.50
2022-08-05T22:47:30.277Z,1.55
2022-08-05T22:50:19.303Z,1.50
2022-08-05T22:52:49.997Z,1.50
2022-08-05T22:55:21.298Z,1.83
2022-08-05T22:57:50.785Z,1.75
2022-08-05T23:00:21.665Z,1.40
2022-08-05T23:02:53.325Z,1.30
2022-08-05T23:05:22.798Z,1.30
2022-08-05T23:07:51.794Z,1.27
2022-08-05T23:10:24.088Z,1.30
2022-08-05T23:12:55.748Z,1.27
2022-08-05T23:15:27.002Z,0.95
2022-08-05T23:18:03.428Z,1.10
2022-08-05T23:20:37.242Z,0.90
2022-08-05T23:23:08.557Z,1.00
2022-08-05T23:25:51.089Z,1.00
2022-08-05T23:28:22.413Z,0.93
2022-08-05T23:30:52.856Z,0.88
2022-08-05T23:33:26.257Z,1.00
2022-08-05T23:36:13.468Z,1.00
2022-08-05T23:38:43.675Z,0.90
2022-08-05T23:41:12.947Z,0.80
2022-08-05T23:44:06.363Z,0.80
2022-08-05T23:46:30.568Z,0.85
2022-08-05T23:49:03.713Z,0.98
2022-08-05T23:52:02.855Z,0.90
2022-08-05T23:54:38.513Z,1.10
2022-08-05T23:57:08.226Z,1.02
